createdAt,value
2022-10-13T00:01:24.260Z,9.61
2022-10-13T00:03:50.394Z,9.54
2022-10-13T00:06:19.233Z,9.47
2022-10-13T00:08:46.462Z,9.47
2022-10-13T00:11:24.991Z,9.40
2022-10-13T00:13:51.795Z,9.48
2022-10-13T00:16:19.737Z,9.40
2022-10-13T00:18:46.027Z,9.49
2022-10-13T00:21:14.646Z,9.45
2022-10-13T00:23:41.298Z,9.47
2022-10-13T00:26:10.274Z,9.43
2022-10-13T00:28:36.880Z,9.58
2022-10-13T00:31:02.965Z,9.27
2022-10-13T00:33:28.856Z,9.23
2022-10-13T00:35:54.738Z,9.27
2022-10-13T00:38:21.582Z,9.31
2022-10-13T00:40:53.056Z,9.33
2022-10-13T00:43:27.792Z,9.30
2022-10-13T00:45:54.127Z,9.36
2022-10-13T00:48:29.573Z,9.35
2022-10-13T00:50:56.162Z,9.40
2022-10-13T00:53:27.180Z,9.51
2022-10-13T00:55:54.349Z,9.40
2022-10-13T00:58:23.325Z,9.43
2022-10-13T01:00:51.283Z,9.34
2022-10-13T01:03:19.593Z,9.27
2022-10-13T01:05:47.279Z,9.33
2022-10-13T01:08:14.573Z,9.37
2022-10-13T01:11:04.651Z,9.16
2022-10-13T01:13:50.196Z,9.27
2022-10-13T01:16:27.706Z,9.37
2022-10-13T01:19:12.413Z,9.28
2022-10-13T01:21:51.110Z,9.31
2022-10-13T01:24:35.272Z,9.31
2022-10-13T01:27:13.423Z,9.29
2022-10-13T01:29:51.445Z,9.37
2022-10-13T01:32:29.080Z,9.48
2022-10-13T01:34:58.611Z,9.35
2022-10-13T01:37:50.979Z,9.34
2022-10-13T01:40:36.470Z,9.55
2022-10-13T01:43:06.256Z,9.53
2022-10-13T01:45:41.896Z,9.58
2022-10-13T01:48:10.132Z,9.48
2022-10-13T01:50:38.085Z,9.51
2022-10-13T01:53:05.317Z,9.54
2022-10-13T01:55:31.385Z,9.64
2022-10-13T01:57:57.477Z,9.60
2022-10-13T02:00:24.075Z,9.64
2022-10-13T02:03:19.756Z,9.58
2022-10-13T02:06:06.540Z,9.48
2022-10-13T02:08:57.881Z,9.56
2022-10-13T02:11:24.715Z,9.52
2022-10-13T02:14:02.438Z,9.47
2022-10-13T02:16:39.346Z,9.48
2022-10-13T02:19:08.296Z,9.68
2022-10-13T02:21:35.217Z,9.54
2022-10-13T02:24:02.990Z,9.68
2022-10-13T02:26:31.549Z,9.65
2022-10-13T02:28:57.395Z,9.60
2022-10-13T02:31:23.142Z,9.63
2022-10-13T02:33:48.911Z,9.74
2022-10-13T02:36:14.681Z,9.66
2022-10-13T02:38:40.434Z,9.70
2022-10-13T02:41:06.200Z,9.56
2022-10-13T02:43:33.205Z,9.51
2022-10-13T02:45:59.046Z,9.53
2022-10-13T02:48:24.821Z,9.65
2022-10-13T02:50:50.800Z,9.71
2022-10-13T02:53:16.542Z,9.60
2022-10-13T02:55:42.371Z,9.55
2022-10-13T02:58:08.083Z,9.65
2022-10-13T03:00:33.899Z,9.61
2022-10-13T03:02:59.724Z,9.60
2022-10-13T03:05:25.505Z,9.61
2022-10-13T03:07:51.224Z,9.63
2022-10-13T03:10:17.479Z,9.62
2022-10-13T03:12:43.222Z,9.66
2022-10-13T03:15:09.107Z,9.66
2022-10-13T03:17:34.848Z,9.57
2022-10-13T03:20:00.656Z,9.57
2022-10-13T03:22:26.444Z,9.64
2022-10-13T03:24:52.175Z,9.55
2022-10-13T03:27:17.933Z,9.54
2022-10-13T03:29:43.873Z,9.52
2022-10-13T03:32:09.649Z,9.54
2022-10-13T03:34:35.515Z,9.61
2022-10-13T03:37:01.651Z,9.59
2022-10-13T03:39:27.530Z,9.51
2022-10-13T03:41:53.276Z,9.53
2022-10-13T03:44:19.149Z,9.53
2022-10-13T03:46:44.993Z,9.56
2022-10-13T03:49:11.609Z,9.72
2022-10-13T03:51:37.957Z,9.72
2022-10-13T03:54:03.716Z,9.55
2022-10-13T03:56:30.091Z,9.65
2022-10-13T03:58:58.638Z,9.64
2022-10-13T04:01:26.567Z,9.71
2022-10-13T04:03:54.892Z,9.70
2022-10-13T04:06:21.807Z,9.62
2022-10-13T04:08:47.926Z,9.71
2022-10-13T04:11:15.159Z,9.70
2022-10-13T04:13:41.577Z,9.56
2022-10-13T04:16:19.991Z,9.56
2022-10-13T04:18:57.117Z,9.64
2022-10-13T04:21:23.821Z,9.60
2022-10-13T04:23:49.621Z,9.67
2022-10-13T04:26:21.247Z,9.78
2022-10-13T04:28:49.459Z,9.76
2022-10-13T04:31:15.389Z,9.70
2022-10-13T04:33:41.158Z,9.59
2022-10-13T04:36:09.426Z,9.57
2022-10-13T04:38:35.466Z,9.60
2022-10-13T04:41:03.357Z,9.67
2022-10-13T04:43:29.593Z,9.68
2022-10-13T04:46:12.032Z,9.67
2022-10-13T04:48:37.808Z,9.74
2022-10-13T04:51:06.928Z,9.79
2022-10-13T04:53:32.790Z,9.81
2022-10-13T04:56:07.797Z,9.73
2022-10-13T04:58:35.140Z,9.77
2022-10-13T05:01:02.284Z,9.84
2022-10-13T05:03:28.377Z,9.90
2022-10-13T05:05:54.221Z,9.84
2022-10-13T05:08:20.934Z,9.88
2022-10-13T05:10:57.436Z,9.94
2022-10-13T05:13:24.366Z,9.85
2022-10-13T05:15:50.749Z,9.94
2022-10-13T05:18:16.517Z,9.97
2022-10-13T05:20:42.286Z,9.92
2022-10-13T05:23:08.098Z,10.01
2022-10-13T05:25:35.107Z,9.85
2022-10-13T05:28:01.718Z,9.87
2022-10-13T05:30:27.475Z,9.92
2022-10-13T05:32:54.066Z,9.78
2022-10-13T05:35:19.880Z,9.75
2022-10-13T05:37:45.629Z,9.62
2022-10-13T05:40:11.576Z,9.68
2022-10-13T05:42:37.797Z,9.61
2022-10-13T05:45:04.085Z,9.64
2022-10-13T05:47:29.846Z,9.65
2022-10-13T05:49:55.586Z,9.62
2022-10-13T05:52:24.341Z,9.61
2022-10-13T05:54:54.394Z,9.73
2022-10-13T05:57:30.424Z,9.80
2022-10-13T06:00:00.314Z,9.70
2022-10-13T06:02:33.850Z,9.74
2022-10-13T06:05:01.115Z,9.88
2022-10-13T06:07:28.856Z,9.79
2022-10-13T06:09:56.537Z,9.95
2022-10-13T06:12:22.563Z,9.87
2022-10-13T06:14:48.504Z,9.91
2022-10-13T06:17:14.244Z,9.94
2022-10-13T06:19:40.182Z,9.92
2022-10-13T06:22:06.520Z,9.97
2022-10-13T06:24:32.324Z,9.95
2022-10-13T06:26:58.234Z,10.05
2022-10-13T06:29:23.962Z,10.08
2022-10-13T06:31:49.709Z,10.04
2022-10-13T06:34:15.508Z,10.01
2022-10-13T06:36:41.507Z,10.17
2022-10-13T06:39:08.189Z,10.13
2022-10-13T06:41:34.241Z,10.19
2022-10-13T06:44:00.056Z,10.19
2022-10-13T06:46:25.883Z,10.13
2022-10-13T06:48:52.007Z,10.16
2022-10-13T06:51:17.897Z,10.20
2022-10-13T06:53:43.824Z,10.27
2022-10-13T06:56:09.802Z,10.29
2022-10-13T06:58:36.624Z,10.25
2022-10-13T07:01:02.869Z,10.31
2022-10-13T07:03:28.674Z,10.42
2022-10-13T07:05:58.956Z,10.59
2022-10-13T07:08:25.086Z,10.45
2022-10-13T07:10:51.023Z,10.53
2022-10-13T07:13:16.806Z,10.57
2022-10-13T07:15:42.574Z,10.56
2022-10-13T07:18:08.438Z,10.63
2022-10-13T07:20:35.016Z,10.60
2022-10-13T07:23:01.251Z,10.43
2022-10-13T07:25:27.254Z,10.39
2022-10-13T07:27:52.995Z,10.50
2022-10-13T07:30:19.168Z,10.59
2022-10-13T07:32:45.003Z,10.64
2022-10-13T07:35:11.182Z,10.74
2022-10-13T07:37:37.700Z,10.69
2022-10-13T07:40:05.434Z,10.63
2022-10-13T07:42:31.330Z,10.77
2022-10-13T07:44:57.125Z,10.63
2022-10-13T07:47:23.137Z,10.69
2022-10-13T07:49:48.975Z,10.69
2022-10-13T07:52:14.767Z,10.80
2022-10-13T07:54:40.582Z,10.68
2022-10-13T07:57:06.324Z,10.67
2022-10-13T07:59:33.335Z,10.91
2022-10-13T08:02:02.452Z,11.00
2022-10-13T08:04:33.070Z,10.98
2022-10-13T08:06:59.180Z,11.18
2022-10-13T08:09:25.830Z,11.15
2022-10-13T08:11:52.489Z,11.46
2022-10-13T08:14:18.647Z,11.50
2022-10-13T08:16:47.516Z,11.45
2022-10-13T08:19:17.268Z,11.42
2022-10-13T08:21:59.932Z,11.37
2022-10-13T08:24:26.890Z,11.29
2022-10-13T08:26:52.885Z,11.21
2022-10-13T08:29:23.582Z,11.35
2022-10-13T08:31:52.051Z,11.09
2022-10-13T08:34:18.270Z,11.22
2022-10-13T08:36:44.077Z,11.13
2022-10-13T08:39:10.270Z,11.17
2022-10-13T08:41:39.734Z,11.23
2022-10-13T08:47:09.895Z,11.16
2022-10-13T08:49:35.754Z,11.05
2022-10-13T08:52:05.070Z,11.00
2022-10-13T08:54:31.871Z,11.22
2022-10-13T08:56:57.891Z,11.03
2022-10-13T08:59:23.749Z,11.08
2022-10-13T09:01:53.238Z,11.14
2022-10-13T09:04:40.099Z,11.30
2022-10-13T09:07:21.029Z,11.51
2022-10-13T09:09:51.895Z,11.73
2022-10-13T09:12:23.330Z,11.90
2022-10-13T09:15:09.083Z,12.07
2022-10-13T09:17:37.070Z,12.27
2022-10-13T09:20:21.274Z,12.15
2022-10-13T09:23:20.298Z,12.29
2022-10-13T09:25:51.510Z,12.29
2022-10-13T09:28:26.387Z,12.17
2022-10-13T09:31:17.439Z,12.09
2022-10-13T09:33:44.822Z,12.01
2022-10-13T09:36:15.188Z,11.95
2022-10-13T09:39:05.293Z,11.95
2022-10-13T09:41:32.372Z,12.05
2022-10-13T09:44:07.252Z,12.05
2022-10-13T09:46:45.707Z,12.47
2022-10-13T09:49:33.901Z,13.11
2022-10-13T09:52:03.011Z,13.65
2022-10-13T09:54:34.748Z,13.97
2022-10-13T09:57:18.861Z,15.31
2022-10-13T10:00:06.839Z,16.18
2022-10-13T10:02:40.250Z,16.95
2022-10-13T10:05:17.665Z,18.00
2022-10-13T10:07:44.457Z,18.81
2022-10-13T10:10:28.579Z,18.04
2022-10-13T10:12:54.584Z,17.62
2022-10-13T10:15:25.569Z,16.40
2022-10-13T10:17:57.643Z,15.77
2022-10-13T10:20:50.008Z,15.53
2022-10-13T10:23:32.506Z,15.65
2022-10-13T10:26:03.462Z,17.89
2022-10-13T10:28:50.452Z,19.02
2022-10-13T10:31:34.357Z,19.24
2022-10-13T10:34:23.709Z,19.61
2022-10-13T10:37:25.456Z,19.47
2022-10-13T10:40:10.222Z,20.78
2022-10-13T10:43:20.861Z,23.03
2022-10-13T10:45:48.015Z,22.66
2022-10-13T10:48:23.454Z,23.04
2022-10-13T10:50:50.827Z,25.02
2022-10-13T10:53:47.784Z,24.36
2022-10-13T10:56:35.117Z,21.64
2022-10-13T10:59:25.357Z,20.01
2022-10-13T11:02:15.395Z,19.07
2022-10-13T11:04:47.691Z,19.99
2022-10-13T11:07:22.733Z,22.52
2022-10-13T11:09:48.835Z,25.31
2022-10-13T11:12:21.217Z,28.00
2022-10-13T11:15:01.555Z,27.18
2022-10-13T11:17:31.294Z,24.74
2022-10-13T11:19:58.139Z,24.21
2022-10-13T11:22:28.779Z,22.65
2022-10-13T11:25:33.348Z,21.39
2022-10-13T11:27:59.439Z,20.46
2022-10-13T11:30:46.666Z,21.63
2022-10-13T11:33:33.695Z,22.56
2022-10-13T11:36:36.903Z,24.89
2022-10-13T11:39:25.278Z,24.17
2022-10-13T11:42:09.544Z,21.78
2022-10-13T11:44:58.368Z,21.03
2022-10-13T11:47:29.942Z,19.51
2022-10-13T11:50:07.208Z,18.23
2022-10-13T11:52:58.515Z,17.64
2022-10-13T11:55:50.700Z,17.03
2022-10-13T11:58:29.438Z,16.95
2022-10-13T12:01:05.890Z,17.36
2022-10-13T12:03:36.965Z,18.24
2022-10-13T12:06:04.780Z,17.98
2022-10-13T12:08:34.568Z,18.53
2022-10-13T12:11:03.938Z,18.70
2022-10-13T12:13:32.255Z,18.18
2022-10-13T12:15:59.343Z,18.95
2022-10-13T12:18:29.252Z,18.69
2022-10-13T12:20:57.655Z,18.96
2022-10-13T12:23:27.768Z,18.79
2022-10-13T12:25:57.741Z,18.69
2022-10-13T12:28:26.849Z,19.48
2022-10-13T12:30:58.170Z,19.23
2022-10-13T12:33:34.603Z,18.16
2022-10-13T12:36:20.383Z,17.33
2022-10-13T12:38:52.259Z,16.51
2022-10-13T12:41:25.256Z,16.00
2022-10-13T12:43:52.341Z,15.69
2022-10-13T12:46:36.867Z,15.36
2022-10-13T12:49:13.685Z,14.88
2022-10-13T12:51:40.798Z,14.73
2022-10-13T12:54:08.765Z,14.54
2022-10-13T12:56:34.984Z,14.61
2022-10-13T12:59:01.002Z,14.30
2022-10-13T13:01:32.291Z,14.25
2022-10-13T13:04:20.180Z,13.97
2022-10-13T13:06:59.353Z,14.10
2022-10-13T13:09:29.554Z,14.20
2022-10-13T13:12:07.638Z,13.95
2022-10-13T13:14:35.794Z,13.85
2022-10-13T13:17:38.526Z,13.76
2022-10-13T13:20:24.248Z,13.68
2022-10-13T13:22:50.227Z,13.37
2022-10-13T13:25:16.132Z,13.53
2022-10-13T13:27:41.930Z,13.59
2022-10-13T13:30:20.018Z,13.76
2022-10-13T13:32:45.953Z,13.56
2022-10-13T13:35:11.945Z,13.60
2022-10-13T13:37:50.159Z,13.43
2022-10-13T13:40:19.250Z,13.31
2022-10-13T13:42:45.141Z,13.41
2022-10-13T13:45:15.719Z,13.17
2022-10-13T13:47:42.525Z,13.04
2022-10-13T13:50:23.497Z,13.24
2022-10-13T13:52:49.517Z,13.09
2022-10-13T13:55:15.548Z,13.02
2022-10-13T13:57:42.591Z,13.05
2022-10-13T14:00:11.287Z,12.97
2022-10-13T14:02:37.244Z,12.88
2022-10-13T14:05:04.277Z,13.02
2022-10-13T14:07:30.538Z,13.01
2022-10-13T14:09:59.274Z,12.79
2022-10-13T14:12:29.811Z,12.82
2022-10-13T14:14:56.189Z,12.99
2022-10-13T14:17:22.410Z,12.90
2022-10-13T14:19:48.214Z,12.74
2022-10-13T14:22:14.025Z,12.83
2022-10-13T14:24:39.803Z,12.69
2022-10-13T14:27:08.185Z,12.66
2022-10-13T14:29:34.837Z,12.78
2022-10-13T14:32:00.854Z,12.96
2022-10-13T14:34:26.833Z,12.97
2022-10-13T14:36:52.572Z,12.86
2022-10-13T14:39:18.647Z,12.82
2022-10-13T14:41:44.454Z,12.60
2022-10-13T14:44:12.989Z,12.63
2022-10-13T14:46:40.068Z,12.79
2022-10-13T14:49:05.801Z,12.98
2022-10-13T14:51:32.153Z,12.91
2022-10-13T14:53:58.497Z,12.97
2022-10-13T14:56:26.893Z,12.97
2022-10-13T14:58:55.951Z,13.20
2022-10-13T15:01:22.140Z,13.17
2022-10-13T15:03:48.419Z,12.93
2022-10-13T15:06:16.168Z,12.97
2022-10-13T15:08:43.556Z,13.06
2022-10-13T15:11:10.035Z,13.04
2022-10-13T15:13:36.668Z,13.11
2022-10-13T15:16:04.043Z,13.13
2022-10-13T15:18:30.885Z,13.03
2022-10-13T15:20:56.781Z,12.96
2022-10-13T15:23:22.665Z,13.00
2022-10-13T15:25:58.584Z,12.92
2022-10-13T15:28:27.636Z,12.82
2022-10-13T15:30:53.709Z,12.62
2022-10-13T15:33:19.593Z,12.49
2022-10-13T15:35:52.467Z,12.40
2022-10-13T15:38:19.970Z,12.47
2022-10-13T15:40:46.881Z,12.34
2022-10-13T15:43:13.614Z,12.35
2022-10-13T15:45:39.754Z,12.38
2022-10-13T15:48:06.890Z,12.38
2022-10-13T15:50:33.046Z,12.39
2022-10-13T15:52:59.014Z,12.48
2022-10-13T15:55:24.897Z,12.38
2022-10-13T15:57:51.366Z,12.26
2022-10-13T16:00:17.544Z,12.25
2022-10-13T16:02:43.936Z,12.27
2022-10-13T16:05:12.078Z,12.34
2022-10-13T16:07:39.937Z,12.24
2022-10-13T16:10:08.088Z,12.19
2022-10-13T16:12:33.998Z,12.30
2022-10-13T16:14:59.844Z,12.20
2022-10-13T16:17:25.745Z,12.24
2022-10-13T16:19:51.559Z,12.17
2022-10-13T16:22:17.588Z,12.14
2022-10-13T16:24:43.632Z,12.19
2022-10-13T16:27:09.441Z,12.07
2022-10-13T16:29:35.276Z,12.06
2022-10-13T16:32:01.039Z,12.09
2022-10-13T16:34:27.181Z,12.20
2022-10-13T16:36:53.007Z,12.22
2022-10-13T16:39:19.021Z,12.27
2022-10-13T16:41:46.170Z,12.12
2022-10-13T16:44:12.498Z,12.08
2022-10-13T16:46:39.356Z,12.07
2022-10-13T16:49:05.692Z,12.24
2022-10-13T16:51:31.553Z,12.11
2022-10-13T16:54:03.940Z,12.17
2022-10-13T16:56:30.459Z,12.13
2022-10-13T16:59:01.946Z,12.10
2022-10-13T17:01:29.218Z,11.99
2022-10-13T17:03:55.824Z,11.87
2022-10-13T17:06:24.037Z,11.95
2022-10-13T17:08:52.256Z,11.96
2022-10-13T17:11:24.380Z,11.98
2022-10-13T17:13:51.257Z,11.97
2022-10-13T17:16:19.551Z,11.93
2022-10-13T17:18:45.867Z,11.91
2022-10-13T17:21:14.430Z,11.92
2022-10-13T17:23:43.556Z,11.97
2022-10-13T17:26:14.663Z,11.82
2022-10-13T17:28:41.258Z,11.81
2022-10-13T17:31:11.171Z,11.87
2022-10-13T17:33:39.225Z,11.73
2022-10-13T17:36:15.396Z,11.75
2022-10-13T17:38:42.003Z,11.69
2022-10-13T17:41:09.159Z,11.71
2022-10-13T17:43:37.341Z,11.88
2022-10-13T17:46:35.770Z,11.85
2022-10-13T17:49:03.775Z,11.74
2022-10-13T17:51:29.636Z,11.78
2022-10-13T17:53:57.892Z,11.73
2022-10-13T17:56:24.119Z,11.59
2022-10-13T17:58:50.821Z,11.58
2022-10-13T18:01:19.951Z,11.54
2022-10-13T18:03:48.116Z,11.49
2022-10-13T18:06:15.409Z,11.47
2022-10-13T18:08:41.350Z,11.52
2022-10-13T18:11:09.474Z,11.54
2022-10-13T18:13:36.251Z,11.56
2022-10-13T18:16:14.369Z,11.58
2022-10-13T18:18:43.074Z,11.53
2022-10-13T18:21:11.301Z,11.53
2022-10-13T18:23:37.910Z,11.54
2022-10-13T18:26:11.370Z,11.61
2022-10-13T18:28:39.735Z,11.50
2022-10-13T18:31:08.529Z,11.54
2022-10-13T18:33:34.628Z,11.61
2022-10-13T18:36:01.382Z,11.52
2022-10-13T18:38:30.241Z,11.54
2022-10-13T18:40:58.680Z,11.58
2022-10-13T18:43:24.587Z,11.50
2022-10-13T18:45:50.444Z,11.57
2022-10-13T18:48:16.321Z,11.48
2022-10-13T18:50:42.100Z,11.49
2022-10-13T18:53:08.046Z,11.43
2022-10-13T18:55:35.481Z,11.43
2022-10-13T18:58:01.462Z,11.42
2022-10-13T19:00:27.408Z,11.48
2022-10-13T19:02:53.185Z,11.47
2022-10-13T19:05:19.315Z,11.48
2022-10-13T19:07:45.004Z,11.55
2022-10-13T19:10:11.102Z,11.48
2022-10-13T19:12:36.951Z,11.51
2022-10-13T19:15:03.447Z,11.54
2022-10-13T19:17:29.289Z,11.54
2022-10-13T19:19:55.603Z,11.68
2022-10-13T19:22:21.559Z,11.54
2022-10-13T19:24:47.419Z,11.51
2022-10-13T19:27:13.245Z,11.61
2022-10-13T19:29:39.087Z,11.62
2022-10-13T19:32:05.144Z,11.58
2022-10-13T19:34:31.847Z,11.62
2022-10-13T19:36:58.997Z,11.54
2022-10-13T19:39:25.579Z,11.44
2022-10-13T19:41:54.251Z,11.45
2022-10-13T19:44:21.064Z,11.58
2022-10-13T19:46:47.846Z,11.63
2022-10-13T19:49:16.408Z,11.55
2022-10-13T19:51:43.051Z,11.53
2022-10-13T19:54:10.365Z,11.54
2022-10-13T19:56:36.542Z,11.52
2022-10-13T19:59:06.410Z,11.40
2022-10-13T20:01:39.244Z,11.42
2022-10-13T20:04:05.939Z,11.35
2022-10-13T20:06:32.743Z,11.43
2022-10-13T20:08:59.477Z,11.37
2022-10-13T20:11:25.743Z,11.35
2022-10-13T20:18:39.302Z,11.37
2022-10-13T20:21:57.849Z,11.37
2022-10-13T20:25:00.008Z,11.55
2022-10-13T20:27:25.788Z,11.46
2022-10-13T20:29:54.823Z,11.47
2022-10-13T20:33:06.732Z,11.42
2022-10-13T20:35:40.854Z,11.35
2022-10-13T20:38:06.590Z,11.37
2022-10-13T20:40:35.121Z,11.37
2022-10-13T20:43:00.924Z,11.40
2022-10-13T20:45:26.713Z,11.41
2022-10-13T20:47:52.467Z,11.49
2022-10-13T20:50:18.467Z,11.44
2022-10-13T20:52:44.253Z,11.38
2022-10-13T20:55:10.072Z,11.28
2022-10-13T20:57:36.200Z,11.27
2022-10-13T21:00:03.439Z,11.16
2022-10-13T21:02:30.675Z,11.09
2022-10-13T21:04:56.441Z,11.21
2022-10-13T21:07:22.694Z,11.33
2022-10-13T21:09:52.864Z,11.37
2022-10-13T21:12:20.134Z,11.22
2022-10-13T21:14:45.923Z,11.10
2022-10-13T21:17:11.684Z,11.01
2022-10-13T21:19:37.505Z,11.02
2022-10-13T21:22:03.306Z,11.01
2022-10-13T21:24:29.107Z,11.01
2022-10-13T21:26:54.893Z,11.03
2022-10-13T21:29:20.714Z,11.05
2022-10-13T21:31:46.493Z,10.96
2022-10-13T21:34:12.512Z,10.92
2022-10-13T21:36:41.687Z,10.97
2022-10-13T21:39:07.491Z,11.05
2022-10-13T21:41:33.507Z,10.97
2022-10-13T21:43:59.281Z,11.11
2022-10-13T21:46:30.437Z,10.99
2022-10-13T21:48:59.241Z,10.76
2022-10-13T21:51:28.467Z,10.83
2022-10-13T21:53:57.295Z,10.92
2022-10-13T21:56:24.948Z,10.80
2022-10-13T21:58:51.469Z,10.79
2022-10-13T22:01:18.653Z,10.84
2022-10-13T22:03:46.424Z,10.92
2022-10-13T22:06:18.813Z,10.94
2022-10-13T22:08:47.570Z,10.98
2022-10-13T22:11:14.779Z,10.97
2022-10-13T22:13:40.865Z,11.02
2022-10-13T22:16:09.993Z,10.94
2022-10-13T22:18:36.115Z,11.00
2022-10-13T22:21:06.455Z,11.10
2022-10-13T22:23:32.433Z,11.03
2022-10-13T22:25:58.293Z,11.08
2022-10-13T22:28:24.555Z,11.00
2022-10-13T22:30:51.706Z,11.03
2022-10-13T22:33:17.863Z,10.91
2022-10-13T22:35:45.894Z,10.92
2022-10-13T22:38:12.967Z,10.91
2022-10-13T22:40:39.496Z,11.05
2022-10-13T22:43:05.393Z,11.04
2022-10-13T22:45:31.173Z,11.05
2022-10-13T22:47:56.969Z,11.04
2022-10-13T22:50:22.722Z,10.96
2022-10-13T22:52:48.562Z,11.18
2022-10-13T22:55:14.464Z,11.15
2022-10-13T22:57:40.245Z,11.16
2022-10-13T23:00:06.977Z,11.15
2022-10-13T23:02:32.919Z,11.18
2022-10-13T23:04:58.698Z,11.15
2022-10-13T23:07:24.560Z,11.12
2022-10-13T23:09:50.388Z,11.11
2022-10-13T23:12:16.174Z,11.16
2022-10-13T23:14:41.919Z,11.17
2022-10-13T23:17:07.717Z,11.18
2022-10-13T23:19:33.677Z,11.17
2022-10-13T23:21:59.453Z,11.14
2022-10-13T23:24:25.280Z,11.23
2022-10-13T23:26:51.093Z,11.24
2022-10-13T23:29:16.850Z,11.25
2022-10-13T23:31:42.598Z,11.20
2022-10-13T23:34:09.154Z,11.24
2022-10-13T23:36:34.941Z,11.22
2022-10-13T23:39:05.881Z,11.27
2022-10-13T23:41:32.289Z,11.28
2022-10-13T23:43:58.099Z,11.20
2022-10-13T23:46:24.359Z,11.23
2022-10-13T23:48:50.180Z,11.21
2022-10-13T23:51:19.012Z,11.26
2022-10-13T23:53:46.009Z,11.33
2022-10-13T23:56:12.595Z,11.26
2022-10-13T23:58:40.383Z,11.15
